ADDS TAF Board (Experimental) INFO

IDs: Format: Expanded Condensed

Updated at: 0729 UTC 01 Sep 2014

KTPA - Tampa Intl Arpt, FL, US

Issued at 0539 UTC 01 Sep 2014
Time0653Z01/08Z01/09Z01/10Z01/11Z01/12Z01/13Z01/14Z01/15Z01/16Z01/17Z01/18Z01/19Z01/20Z
TypeOBSPRVLPRVLPRVLPRVLPRVLPRVLPRVLPRVLPRVLPRVLPRVLPRVLPRVL
VIS10>6>6>6>6>6>6>6>6>6>6>6>6>6
CIG------------------------7070
CoverCLRSCTSCTSCTSCTSCTSCTSCTSCTSCTSCTSCTBKNBKN
FltCat--VFRVFRVFRVFRVFRVFRVFRVFRVFRVFRVFRVFRVFR
WX------------------------VCTSVCTS
WDir40VRBVRBVRBVRBVRBVRB140140140140140240240
WSpd53333337777766
WGst----------------------------
R01/19
XWnd-3VRBVRBVRBVRBVRBVRB-5-5-5-5-555
HWnd4VRBVRBVRBVRBVRBVRB-5-5-5-5-5-3-3
R10/28
XWnd4VRBVRBVRBVRBVRBVRB-5-5-5-5-5-3-3
HWnd3VRBVRBVRBVRBVRBVRB55555-5-5
Raw TAF
KTPA 010539Z 0106/0206 VRB03KT P6SM FEW070 SCT250
  FM011400 14007KT P6SM SCT025 SCT100
  FM011900 24006KT P6SM VCTS SCT035CB BKN070
  FM020100 VRB03KT P6SM FEW030 BKN250


Raw METAR
KTPA 010653Z 04005KT 10SM CLR 26/23 A3009 RMK AO2 SLP188 T02560228

TAF Board Legend

Hazard VFR MVFR IFR LIFR
Visibility (sm) >5 3≤X≤5 1≤X<3 <1
Ceiling (100 ft) >30 10≤X≤30 5≤X<10 <5
Wind Speed (kt) <10 10≤X<20 20≤X<30 ≥30
Wind Gust (kt) <15 15≤X<25 25≤X<35 ≥35
Weather No Wx Reported VCTS,-TS,-FZRA TS,FZRA +TS,+FZRA


Page loaded:  07:29 UTC  |   12:29 AM Pacific  |   01:29 AM Mountain  |   02:29 AM Central  |   03:29 AM Eastern

 

ADVISORIES

FORECASTS

FORECASTS

OBSERVATIONS

USER TOOLS

ABOUT US